Overview Statistics Trail Chart Weather Telemetry Raw packets
 

This is the latest recevied weather packets stored in our database for station/object KB9OQF-5. If no packets are shown the sender has not sent any weather packets the latest 10 day(s).

<< 1 2 3 4 >>
Time Temp. Humidity Pressure Rain* Wind** Luminosity Snow
1788598815 21.67° C 86% 984 hPa 0 mm - - -
1788598466 21.67° C 85% 984 hPa 0 mm - - -
1788598115 21.67° C 84% 984 hPa 0 mm - - -
1788563466 31.67° C 59% 983 hPa 0 mm - - -
1788529166 25.56° C 85% 986 hPa 0 mm - - -
1788528815 25.56° C 86% 986 hPa 0 mm - - -
1788528115 25° C 88% 986 hPa 0 mm - - -
1788527066 24.44° C 91% 985 hPa 0 mm - - -
1788524997 23.33° C 91% 986 hPa 0 mm - - -
1788522514 22.22° C 91% 985 hPa 0 mm - - -
1788521464 22.22° C 91% 985 hPa 0 mm - - -
1788520772 22.22° C 91% 985 hPa 0 mm - - -
1788518709 22.22° C 91% 984 hPa 0 mm - - -
1788518665 22.22° C 91% 984 hPa 0 mm - - -
1788516916 22.22° C 88% 984 hPa 0 mm - - -
1788516565 22.22° C 88% 984 hPa 0 mm - - -
1788516215 22.22° C 88% 984 hPa 0 mm - - -
1788514465 22.22° C 88% 985 hPa 0 mm - - -
1788508864 22.78° C 89% 984 hPa 0 mm - - -
1788508164 22.78° C 89% 985 hPa 0 mm - - -
1788507815 22.78° C 89% 985 hPa 0 mm - - -
1788505715 22.78° C 89% 985 hPa 0 mm - - -
1788504314 22.78° C 89% 985 hPa 0 mm - - -
1788503964 22.78° C 88% 985 hPa 0 mm - - -
1788502915 23.33° C 88% 986 hPa 0 mm - - -

* Rain latest hour (hover to see other rain measurements)
** Current wind speed in m/s (hover to see current wind gust speed)